Pemaquid Point Lighthouse, ME

43° 50' 13"N, 69° 30' 22"W, Elevation 40 ft.
Eastern Time

Hourly observations for the last 72 hours

Date Time Temperature (°F) Humi-
dity

(%)
Wind
(mph)
Pressure Rain (in) Sun
(W/m2)
UV ET
(in)
Air Dew 6 Hour 1 Hr 3 Hr 6 Hr Day
Alt
(in)
Sea
Level

(mb)
Max Min
24 19:00 38.6 35.1 38.7 37.5 87 ENE 13 G 17 30.44 1030.9 0.00 0 0.0 0.046
24 18:00 37.7 33.9 86 NE 14 G 18 30.41 1029.8 0.00 0 0.0 0.045
24 17:00 37.7 33.6 85 NE 12 G 16 30.42 1030.2 0.00 0 0.0 0.044
24 16:00 38.1 34.0 85 NE 13 G 17 30.42 1030.3 0.00 14 0.0 0.043
24 15:00 38.3 33.6 83 NE 12 G 16 30.43 1030.4 0.00 46 0.0 0.041
24 14:00 38.5 33.5 82 NNE 12 G 17 30.42 1030.3 0.00 125 0.0 0.036
24 13:00 38.2 32.6 38.8 33.4 80 NE 15 G 18 30.43 1030.5 0.00 250 0.7 0.030
24 12:00 38.5 31.9 77 NE 13 G 17 30.44 1030.9 0.00 346 1.1 0.022
24 11:00 38.4 32.1 78 ENE 15 G 19 30.46 1031.5 0.00 483 1.1 0.014
24 10:00 36.7 30.2 77 NNE 10 G 16 30.45 1031.3 0.00 399 0.7 0.010
24 09:00 34.8 27.7 75 NNE 10 G 16 30.43 1030.7 0.00 93 0.0 0.008
24 08:00 33.7 26.3 74 N 7 G 14 30.43 1030.5 0.00 40 0.0 0.007
24 07:00 33.4 26.0 33.4 29.6 74 NNE 8 G 13 30.40 1029.5 0.00 0 0.0 0.006
24 06:00 32.3 26.2 78 NNE 4 G 9 30.38 1028.7 0.00 0 0.0 0.005
24 05:00 32.8 26.4 77 NNE 6 G 11 30.36 1028.1 0.00 0 0.0 0.004
24 04:00 32.8 26.4 77 NNE 7 G 12 30.34 1027.6 0.00 0 0.0 0.003
24 03:00 30.5 23.5 75 N 3 G 5 30.35 1027.7 0.00 0 0.0 0.002
24 02:00 31.5 23.8 73 NW 7 G 9 30.34 1027.5 0.00 0 0.0 0.001
24 01:00 31.2 23.9 34.2 31.2 74 NNE 3 G 4 30.32 1026.9 0.00 0 0.0 0.000
24 00:00 32.4 25.0 74 NNW 4 G 7 30.32 1026.8 0.00 0 0.0 0.046
23 23:00 32.2 25.2 75 NW 6 G 8 30.33 1027.0 0.00 0 0.0 0.045
23 22:00 31.4 25.6 79 NW 6 G 8 30.32 1026.8 0.00 0 0.0 0.044
23 21:00 31.8 26.9 82 NW 9 G 10 30.32 1026.7 0.00 0 0.0 0.043
23 20:00 32.9 28.6 84 NW 6 G 9 30.31 1026.3 0.00 0 0.0 0.042
23 19:00 33.5 29.2 38.8 33.4 84 W 6 G 9 30.30 1026.1 0.00 0 0.0 0.042
23 18:00 33.5 29.2 84 W 3 G 6 30.28 1025.5 0.00 0 0.0 0.042
23 17:00 35.5 30.6 82 WSW 2 G 3 30.28 1025.5 0.00 0 0.0 0.042
23 16:00 37.2 32.5 83 SW 2 G 6 30.26 1024.9 0.00 37 0.0 0.041
23 15:00 38.0 32.4 80 SW 4 G 10 30.26 1024.9 0.00 118 0.0 0.038
23 14:00 38.0 32.1 79 SW 3 G 10 30.27 1025.1 0.00 192 0.5 0.034
23 13:00 38.7 31.8 39.6 30.7 76 WSW 4 G 11 30.28 1025.3 0.00 223 0.8 0.027
23 12:00 39.2 32.9 78 SW 9 G 15 30.30 1025.9 0.00 413 1.1 0.020
23 11:00 39.0 32.7 78 WSW 5 G 9 30.32 1026.7 0.00 517 1.1 0.012
23 10:00 37.8 31.6 78 WSW 6 G 10 30.33 1027.1 0.00 450 0.8 0.009
23 09:00 35.9 30.9 82 SW 7 G 12 30.32 1026.7 0.00 35 0.0 0.008
23 08:00 33.3 28.7 83 SW 4 G 9 30.31 1026.5 0.00 25 0.0 0.007
23 07:00 32.5 27.6 37.4 32.5 82 NW 8 G 12 30.29 1025.9 0.00 0 0.0 0.006
23 06:00 35.9 30.6 81 WSW 9 G 14 30.28 1025.6 0.00 0 0.0 0.005
23 05:00 36.2 31.5 83 WSW 7 G 15 30.27 1025.2 0.00 0 0.0 0.004
23 04:00 36.5 31.5 82 WSW 8 G 19 30.28 1025.4 0.00 0 0.0 0.003
23 03:00 36.5 30.9 80 WSW 8 G 15 30.30 1026.2 0.00 0 0.0 0.002
23 02:00 37.2 31.6 80 SW 11 G 20 30.30 1026.2 0.00 0 0.0 0.001
23 01:00 37.1 31.2 37.1 31.5 79 SW 11 G 21 30.32 1026.8 0.00 0 0.0 0.000
23 00:00 36.1 29.9 78 SSW 13 G 18 30.32 1026.8 0.00 0 0.0 0.046
22 23:00 35.9 29.1 76 SW 10 G 18 30.34 1027.4 0.00 0 0.0 0.045
22 22:00 35.3 28.5 76 SW 14 G 20 30.35 1027.9 0.00 0 0.0 0.044
22 21:00 34.4 27.6 76 SW 13 G 18 30.35 1028.0 0.00 0 0.0 0.043
22 20:00 33.1 25.7 74 WSW 7 G 15 30.36 1028.3 0.00 0 0.0 0.042
22 19:00 31.5 23.2 35.6 30.3 71 WSW 5 G 11 30.36 1028.1 0.00 0 0.0 0.041
22 18:00 30.6 23.3 74 WSW 3 G 8 30.36 1028.2 0.00 0 0.0 0.040
22 17:00 30.7 25.0 79 WSW 6 G 11 30.35 1027.9 0.00 0 0.0 0.039
22 16:00 32.0 25.9 78 WSW 4 G 10 30.35 1027.7 0.00 25 0.0 0.038
22 15:00 34.1 26.7 74 SW 3 G 8 30.35 1027.8 0.00 97 0.0 0.034
22 14:00 35.3 26.5 70 SSW 3 G 5 30.34 1027.5 0.00 410 0.7 0.029
22 13:00 31.6 23.3 32.2 21.2 71 ENE 4 G 7 30.34 1027.6 0.00 74 0.8 0.024
22 12:00 31.7 22.7 69 ENE 5 G 7 30.37 1028.4 0.00 469 1.2 0.018
22 11:00 29.8 20.2 67 NE 4 G 9 30.39 1029.1 0.00 473 1.1 0.012
22 10:00 28.8 18.2 64 NE 5 G 7 30.40 1029.5 0.00 399 0.7 0.009
22 09:00 23.9 15.5 70 NNW 5 G 7 30.39 1029.3 0.00 109 0.0 0.008
22 08:00 21.9 15.2 75 NNW 7 G 10 30.39 1029.1 0.00 44 0.0 0.007
22 07:00 21.3 13.4 23.4 21.0 71 NNW 7 G 11 30.37 1028.6 0.00 0 0.0 0.006
22 06:00 21.0 14.6 76 NNW 8 G 10 30.35 1027.9 0.00 0 0.0 0.005
22 05:00 22.0 15.9 77 NW 8 G 10 30.35 1027.9 0.00 0 0.0 0.004
22 04:00 23.1 17.0 77 WNW 6 G 9 30.35 1027.9 0.00 0 0.0 0.003
22 03:00 22.0 15.3 75 NW 5 G 7 30.35 1027.9 0.00 0 0.0 0.002
22 02:00 22.1 14.5 72 WNW 7 G 10 30.36 1028.2 0.00 0 0.0 0.001
22 01:00 22.6 15.6 23.8 22.2 74 NW 7 G 9 30.35 1027.9 0.00 0 0.0 0.000
22 00:00 23.3 14.3 68 WNW 5 G 11 30.36 1028.2 0.00 0 0.0 0.036
21 23:00 23.1 13.4 66 W 10 G 13 30.36 1028.3 0.00 0 0.0 0.035
21 22:00 23.6 13.6 65 W 6 G 10 30.37 1028.4 0.00 0 0.0 0.034
21 21:00 23.8 14.8 68 W 5 G 11 30.38 1028.8 0.00 0 0.0 0.033
21 20:00 23.2 14.5 69 W 8 G 11 30.39 1029.0 0.00 0 0.0 0.032

Data generated by WxSolution Version 1.9.1.5, Build 2018.05.20.